sensor_id;sensor_type;location;lat;lon;timestamp;temperature;humidity
45785;DHT22;31489;51.404;5.474;2023-04-24T00:00:16;13.00;80.00
45785;DHT22;31489;51.404;5.474;2023-04-24T00:02:43;13.00;80.00
45785;DHT22;31489;51.404;5.474;2023-04-24T00:05:13;13.00;80.10
45785;DHT22;31489;51.404;5.474;2023-04-24T00:07:39;13.00;80.10
45785;DHT22;31489;51.404;5.474;2023-04-24T00:10:06;13.00;79.90
45785;DHT22;31489;51.404;5.474;2023-04-24T00:12:32;13.00;79.90
45785;DHT22;31489;51.404;5.474;2023-04-24T00:14:57;13.00;79.70
45785;DHT22;31489;51.404;5.474;2023-04-24T00:17:26;13.00;79.70
45785;DHT22;31489;51.404;5.474;2023-04-24T00:19:51;13.00;79.70
45785;DHT22;31489;51.404;5.474;2023-04-24T00:22:26;13.00;79.90
45785;DHT22;31489;51.404;5.474;2023-04-24T00:24:52;13.00;79.80
45785;DHT22;31489;51.404;5.474;2023-04-24T00:27:21;13.00;79.70
45785;DHT22;31489;51.404;5.474;2023-04-24T00:29:47;13.00;79.70
45785;DHT22;31489;51.404;5.474;2023-04-24T00:32:13;13.00;79.50
45785;DHT22;31489;51.404;5.474;2023-04-24T00:34:39;13.00;79.50
45785;DHT22;31489;51.404;5.474;2023-04-24T00:37:04;13.00;80.00
45785;DHT22;31489;51.404;5.474;2023-04-24T00:39:30;13.00;79.50
45785;DHT22;31489;51.404;5.474;2023-04-24T00:41:56;13.10;79.40
45785;DHT22;31489;51.404;5.474;2023-04-24T00:44:22;13.10;79.30
45785;DHT22;31489;51.404;5.474;2023-04-24T00:46:49;13.00;79.30
45785;DHT22;31489;51.404;5.474;2023-04-24T00:49:23;13.00;79.30
45785;DHT22;31489;51.404;5.474;2023-04-24T00:51:48;13.00;79.20
45785;DHT22;31489;51.404;5.474;2023-04-24T00:54:17;13.00;79.30
45785;DHT22;31489;51.404;5.474;2023-04-24T00:56:44;13.00;79.40
45785;DHT22;31489;51.404;5.474;2023-04-24T00:59:15;13.00;79.40
45785;DHT22;31489;51.404;5.474;2023-04-24T01:01:41;12.90;79.60
45785;DHT22;31489;51.404;5.474;2023-04-24T01:04:09;13.00;79.30
45785;DHT22;31489;51.404;5.474;2023-04-24T01:06:37;13.00;79.40
45785;DHT22;31489;51.404;5.474;2023-04-24T01:09:03;12.90;79.30
45785;DHT22;31489;51.404;5.474;2023-04-24T01:11:30;12.90;79.30
45785;DHT22;31489;51.404;5.474;2023-04-24T01:13:59;12.90;79.30
45785;DHT22;31489;51.404;5.474;2023-04-24T01:16:25;12.90;79.40
45785;DHT22;31489;51.404;5.474;2023-04-24T01:18:51;12.90;79.50
45785;DHT22;31489;51.404;5.474;2023-04-24T01:21:18;12.90;79.30
45785;DHT22;31489;51.404;5.474;2023-04-24T01:23:44;12.90;79.40
45785;DHT22;31489;51.404;5.474;2023-04-24T01:26:10;12.80;79.40
45785;DHT22;31489;51.404;5.474;2023-04-24T01:28:37;12.80;79.40
45785;DHT22;31489;51.404;5.474;2023-04-24T01:31:03;12.80;79.50
45785;DHT22;31489;51.404;5.474;2023-04-24T01:33:28;12.80;79.50
45785;DHT22;31489;51.404;5.474;2023-04-24T01:35:54;12.80;79.50
45785;DHT22;31489;51.404;5.474;2023-04-24T01:38:20;12.80;79.40
45785;DHT22;31489;51.404;5.474;2023-04-24T01:40:46;12.80;79.50
45785;DHT22;31489;51.404;5.474;2023-04-24T01:43:12;12.70;79.50
45785;DHT22;31489;51.404;5.474;2023-04-24T01:45:38;12.80;80.30
45785;DHT22;31489;51.404;5.474;2023-04-24T01:48:04;12.80;79.70
45785;DHT22;31489;51.404;5.474;2023-04-24T01:50:29;12.80;79.70
45785;DHT22;31489;51.404;5.474;2023-04-24T01:52:55;12.80;79.60
45785;DHT22;31489;51.404;5.474;2023-04-24T01:55:21;12.80;79.50
45785;DHT22;31489;51.404;5.474;2023-04-24T01:57:47;12.80;79.40
45785;DHT22;31489;51.404;5.474;2023-04-24T02:00:12;12.80;79.40
45785;DHT22;31489;51.404;5.474;2023-04-24T02:02:39;12.80;79.30
45785;DHT22;31489;51.404;5.474;2023-04-24T02:05:09;12.80;79.30
45785;DHT22;31489;51.404;5.474;2023-04-24T02:07:35;12.80;79.30
45785;DHT22;31489;51.404;5.474;2023-04-24T02:10:01;12.80;79.30
45785;DHT22;31489;51.404;5.474;2023-04-24T02:12:26;12.80;79.10
45785;DHT22;31489;51.404;5.474;2023-04-24T02:14:52;12.80;79.20
45785;DHT22;31489;51.404;5.474;2023-04-24T02:17:17;12.80;79.20
45785;DHT22;31489;51.404;5.474;2023-04-24T02:19:44;12.80;79.20
45785;DHT22;31489;51.404;5.474;2023-04-24T02:22:10;12.80;79.20
45785;DHT22;31489;51.404;5.474;2023-04-24T02:24:37;12.80;79.00
45785;DHT22;31489;51.404;5.474;2023-04-24T02:27:03;12.80;78.90
45785;DHT22;31489;51.404;5.474;2023-04-24T02:29:29;12.80;79.10
45785;DHT22;31489;51.404;5.474;2023-04-24T02:31:54;12.80;79.10
45785;DHT22;31489;51.404;5.474;2023-04-24T02:34:20;12.80;79.00
45785;DHT22;31489;51.404;5.474;2023-04-24T02:36:46;12.90;79.10
45785;DHT22;31489;51.404;5.474;2023-04-24T02:39:12;12.90;78.90
45785;DHT22;31489;51.404;5.474;2023-04-24T02:41:38;12.90;78.80
45785;DHT22;31489;51.404;5.474;2023-04-24T02:44:06;12.90;78.60
45785;DHT22;31489;51.404;5.474;2023-04-24T02:46:32;12.90;78.60
45785;DHT22;31489;51.404;5.474;2023-04-24T02:48:58;12.90;78.50
45785;DHT22;31489;51.404;5.474;2023-04-24T02:51:24;12.90;78.40
45785;DHT22;31489;51.404;5.474;2023-04-24T02:53:51;12.90;78.40
45785;DHT22;31489;51.404;5.474;2023-04-24T02:56:16;12.90;78.40
45785;DHT22;31489;51.404;5.474;2023-04-24T02:58:42;12.90;78.40
45785;DHT22;31489;51.404;5.474;2023-04-24T03:01:08;12.90;78.30
45785;DHT22;31489;51.404;5.474;2023-04-24T03:03:35;12.90;78.30
45785;DHT22;31489;51.404;5.474;2023-04-24T03:06:01;12.80;78.10
45785;DHT22;31489;51.404;5.474;2023-04-24T03:08:27;12.80;78.10
45785;DHT22;31489;51.404;5.474;2023-04-24T03:10:59;12.80;78.10
45785;DHT22;31489;51.404;5.474;2023-04-24T03:13:25;12.80;78.20
45785;DHT22;31489;51.404;5.474;2023-04-24T03:15:50;12.80;78.30
45785;DHT22;31489;51.404;5.474;2023-04-24T03:18:16;12.80;78.30
45785;DHT22;31489;51.404;5.474;2023-04-24T03:20:47;12.80;78.20
45785;DHT22;31489;51.404;5.474;2023-04-24T03:23:13;12.80;78.10
45785;DHT22;31489;51.404;5.474;2023-04-24T03:25:39;12.80;78.00
45785;DHT22;31489;51.404;5.474;2023-04-24T03:28:04;12.80;78.00
45785;DHT22;31489;51.404;5.474;2023-04-24T03:30:30;12.80;78.00
45785;DHT22;31489;51.404;5.474;2023-04-24T03:32:56;12.80;77.90
45785;DHT22;31489;51.404;5.474;2023-04-24T03:35:23;12.70;77.80
45785;DHT22;31489;51.404;5.474;2023-04-24T03:37:49;12.70;77.90
45785;DHT22;31489;51.404;5.474;2023-04-24T03:40:14;12.70;78.00
45785;DHT22;31489;51.404;5.474;2023-04-24T03:42:40;12.70;78.00
45785;DHT22;31489;51.404;5.474;2023-04-24T03:45:06;12.70;77.80
45785;DHT22;31489;51.404;5.474;2023-04-24T03:47:32;12.70;77.90
45785;DHT22;31489;51.404;5.474;2023-04-24T03:49:57;12.70;77.90
45785;DHT22;31489;51.404;5.474;2023-04-24T03:52:23;12.70;77.80
45785;DHT22;31489;51.404;5.474;2023-04-24T03:54:49;12.70;77.80
45785;DHT22;31489;51.404;5.474;2023-04-24T03:57:14;12.70;77.80
45785;DHT22;31489;51.404;5.474;2023-04-24T03:59:40;12.70;77.80
45785;DHT22;31489;51.404;5.474;2023-04-24T04:02:05;12.70;78.00
45785;DHT22;31489;51.404;5.474;2023-04-24T04:04:31;12.70;78.00
45785;DHT22;31489;51.404;5.474;2023-04-24T04:06:56;12.70;77.90
45785;DHT22;31489;51.404;5.474;2023-04-24T04:09:26;12.70;78.00
45785;DHT22;31489;51.404;5.474;2023-04-24T04:11:52;12.70;77.80
45785;DHT22;31489;51.404;5.474;2023-04-24T04:14:17;12.70;77.70
45785;DHT22;31489;51.404;5.474;2023-04-24T04:16:43;12.70;77.80
45785;DHT22;31489;51.404;5.474;2023-04-24T04:19:09;12.60;77.80
45785;DHT22;31489;51.404;5.474;2023-04-24T04:21:34;12.60;78.00
45785;DHT22;31489;51.404;5.474;2023-04-24T04:24:00;12.50;78.00
45785;DHT22;31489;51.404;5.474;2023-04-24T04:26:26;12.50;78.30
45785;DHT22;31489;51.404;5.474;2023-04-24T04:28:52;12.50;78.50
45785;DHT22;31489;51.404;5.474;2023-04-24T04:31:19;12.50;79.30
45785;DHT22;31489;51.404;5.474;2023-04-24T04:33:46;12.40;78.80
45785;DHT22;31489;51.404;5.474;2023-04-24T04:36:11;12.40;79.20
45785;DHT22;31489;51.404;5.474;2023-04-24T04:38:37;12.40;79.10
45785;DHT22;31489;51.404;5.474;2023-04-24T04:41:04;12.30;79.00
45785;DHT22;31489;51.404;5.474;2023-04-24T04:43:33;12.30;79.20
45785;DHT22;31489;51.404;5.474;2023-04-24T04:45:59;12.30;79.20
45785;DHT22;31489;51.404;5.474;2023-04-24T04:48:26;12.30;79.50
45785;DHT22;31489;51.404;5.474;2023-04-24T04:50:52;12.20;79.50
45785;DHT22;31489;51.404;5.474;2023-04-24T04:53:18;12.20;79.50
45785;DHT22;31489;51.404;5.474;2023-04-24T04:55:43;12.10;79.70
45785;DHT22;31489;51.404;5.474;2023-04-24T04:58:09;12.10;79.90
45785;DHT22;31489;51.404;5.474;2023-04-24T05:00:34;12.00;79.90
45785;DHT22;31489;51.404;5.474;2023-04-24T05:03:02;12.00;80.10
45785;DHT22;31489;51.404;5.474;2023-04-24T05:05:28;12.00;80.20
45785;DHT22;31489;51.404;5.474;2023-04-24T05:07:54;12.00;80.40
45785;DHT22;31489;51.404;5.474;2023-04-24T05:10:20;12.00;80.60
45785;DHT22;31489;51.404;5.474;2023-04-24T05:12:46;12.00;80.70
45785;DHT22;31489;51.404;5.474;2023-04-24T05:15:11;11.90;80.70
45785;DHT22;31489;51.404;5.474;2023-04-24T05:17:37;11.90;80.50
45785;DHT22;31489;51.404;5.474;2023-04-24T05:20:03;11.90;80.50
45785;DHT22;31489;51.404;5.474;2023-04-24T05:22:31;11.80;80.60
45785;DHT22;31489;51.404;5.474;2023-04-24T05:24:56;11.80;80.70
45785;DHT22;31489;51.404;5.474;2023-04-24T05:27:22;11.80;81.00
45785;DHT22;31489;51.404;5.474;2023-04-24T05:29:48;11.80;81.10
45785;DHT22;31489;51.404;5.474;2023-04-24T05:32:13;11.80;81.10
45785;DHT22;31489;51.404;5.474;2023-04-24T05:34:39;11.70;81.30
45785;DHT22;31489;51.404;5.474;2023-04-24T05:37:05;11.70;81.40
45785;DHT22;31489;51.404;5.474;2023-04-24T05:39:34;11.70;81.40
45785;DHT22;31489;51.404;5.474;2023-04-24T05:42:00;11.70;81.70
45785;DHT22;31489;51.404;5.474;2023-04-24T05:44:26;11.70;81.70
45785;DHT22;31489;51.404;5.474;2023-04-24T05:46:52;11.60;81.80
45785;DHT22;31489;51.404;5.474;2023-04-24T05:49:18;11.60;81.80
45785;DHT22;31489;51.404;5.474;2023-04-24T05:51:43;11.60;82.10
45785;DHT22;31489;51.404;5.474;2023-04-24T05:54:09;11.60;81.90
45785;DHT22;31489;51.404;5.474;2023-04-24T05:56:37;11.50;81.80
45785;DHT22;31489;51.404;5.474;2023-04-24T05:59:03;11.50;82.00
45785;DHT22;31489;51.404;5.474;2023-04-24T06:01:31;11.50;82.10
45785;DHT22;31489;51.404;5.474;2023-04-24T06:03:57;11.50;81.90
45785;DHT22;31489;51.404;5.474;2023-04-24T06:06:24;11.50;82.10
45785;DHT22;31489;51.404;5.474;2023-04-24T06:08:49;11.50;82.20
45785;DHT22;31489;51.404;5.474;2023-04-24T06:11:15;11.40;82.10
45785;DHT22;31489;51.404;5.474;2023-04-24T06:13:43;11.40;82.20
45785;DHT22;31489;51.404;5.474;2023-04-24T06:16:10;11.40;82.30
45785;DHT22;31489;51.404;5.474;2023-04-24T06:18:35;11.40;82.40
45785;DHT22;31489;51.404;5.474;2023-04-24T06:21:01;11.40;82.50
45785;DHT22;31489;51.404;5.474;2023-04-24T06:23:27;11.40;82.80
45785;DHT22;31489;51.404;5.474;2023-04-24T06:25:52;11.30;82.90
45785;DHT22;31489;51.404;5.474;2023-04-24T06:28:18;11.20;82.90
45785;DHT22;31489;51.404;5.474;2023-04-24T06:30:44;11.30;83.10
45785;DHT22;31489;51.404;5.474;2023-04-24T06:33:09;11.20;83.20
45785;DHT22;31489;51.404;5.474;2023-04-24T06:35:36;11.20;83.30
45785;DHT22;31489;51.404;5.474;2023-04-24T06:38:03;11.20;83.50
45785;DHT22;31489;51.404;5.474;2023-04-24T06:40:28;11.20;83.60
45785;DHT22;31489;51.404;5.474;2023-04-24T06:42:54;11.20;83.60
45785;DHT22;31489;51.404;5.474;2023-04-24T06:45:20;11.20;83.80
45785;DHT22;31489;51.404;5.474;2023-04-24T06:47:46;11.20;84.00
45785;DHT22;31489;51.404;5.474;2023-04-24T06:50:12;11.20;84.00
45785;DHT22;31489;51.404;5.474;2023-04-24T06:52:38;11.20;84.20
45785;DHT22;31489;51.404;5.474;2023-04-24T06:55:04;11.20;84.20
45785;DHT22;31489;51.404;5.474;2023-04-24T06:57:30;11.20;84.30
45785;DHT22;31489;51.404;5.474;2023-04-24T06:59:58;11.20;84.20
45785;DHT22;31489;51.404;5.474;2023-04-24T07:02:25;11.20;84.20
45785;DHT22;31489;51.404;5.474;2023-04-24T07:04:50;11.20;84.30
45785;DHT22;31489;51.404;5.474;2023-04-24T07:07:16;11.20;84.40
45785;DHT22;31489;51.404;5.474;2023-04-24T07:09:42;11.20;84.60
45785;DHT22;31489;51.404;5.474;2023-04-24T07:12:08;11.20;84.70
45785;DHT22;31489;51.404;5.474;2023-04-24T07:14:36;11.20;84.60
45785;DHT22;31489;51.404;5.474;2023-04-24T07:17:05;11.20;84.60
45785;DHT22;31489;51.404;5.474;2023-04-24T07:19:32;11.20;84.70
45785;DHT22;31489;51.404;5.474;2023-04-24T07:21:58;11.20;84.70
45785;DHT22;31489;51.404;5.474;2023-04-24T07:24:25;11.20;84.80
45785;DHT22;31489;51.404;5.474;2023-04-24T07:26:52;11.20;84.90
45785;DHT22;31489;51.404;5.474;2023-04-24T07:29:18;11.20;85.10
45785;DHT22;31489;51.404;5.474;2023-04-24T07:31:43;11.20;85.20
45785;DHT22;31489;51.404;5.474;2023-04-24T07:34:09;11.20;85.20
45785;DHT22;31489;51.404;5.474;2023-04-24T07:36:35;11.20;85.30
45785;DHT22;31489;51.404;5.474;2023-04-24T07:39:04;11.30;85.40
45785;DHT22;31489;51.404;5.474;2023-04-24T07:41:29;11.20;85.20
45785;DHT22;31489;51.404;5.474;2023-04-24T07:43:58;11.20;85.20
45785;DHT22;31489;51.404;5.474;2023-04-24T07:46:24;11.30;85.20
45785;DHT22;31489;51.404;5.474;2023-04-24T07:48:50;11.30;84.90
45785;DHT22;31489;51.404;5.474;2023-04-24T07:51:16;11.30;84.70
45785;DHT22;31489;51.404;5.474;2023-04-24T07:53:42;11.30;84.50
45785;DHT22;31489;51.404;5.474;2023-04-24T07:56:08;11.20;84.40
45785;DHT22;31489;51.404;5.474;2023-04-24T07:58:34;11.20;84.40
45785;DHT22;31489;51.404;5.474;2023-04-24T08:01:00;11.20;84.70
45785;DHT22;31489;51.404;5.474;2023-04-24T08:03:25;11.20;84.80
45785;DHT22;31489;51.404;5.474;2023-04-24T08:05:51;11.20;85.00
45785;DHT22;31489;51.404;5.474;2023-04-24T08:08:17;11.20;85.10
45785;DHT22;31489;51.404;5.474;2023-04-24T08:10:43;11.20;85.30
45785;DHT22;31489;51.404;5.474;2023-04-24T08:13:09;11.20;85.30
45785;DHT22;31489;51.404;5.474;2023-04-24T08:15:36;11.30;85.50
45785;DHT22;31489;51.404;5.474;2023-04-24T08:18:02;11.30;85.60
45785;DHT22;31489;51.404;5.474;2023-04-24T08:20:28;11.30;85.70
45785;DHT22;31489;51.404;5.474;2023-04-24T08:22:54;11.30;85.80
45785;DHT22;31489;51.404;5.474;2023-04-24T08:25:20;11.30;85.60
45785;DHT22;31489;51.404;5.474;2023-04-24T08:27:48;11.40;85.50
45785;DHT22;31489;51.404;5.474;2023-04-24T08:30:13;11.40;85.20
45785;DHT22;31489;51.404;5.474;2023-04-24T08:32:39;11.40;85.30
45785;DHT22;31489;51.404;5.474;2023-04-24T08:35:08;11.40;85.40
45785;DHT22;31489;51.404;5.474;2023-04-24T08:37:34;11.40;85.50
45785;DHT22;31489;51.404;5.474;2023-04-24T08:40:01;11.40;85.30
45785;DHT22;31489;51.404;5.474;2023-04-24T08:42:28;11.40;85.80
45785;DHT22;31489;51.404;5.474;2023-04-24T08:44:54;11.40;85.40
45785;DHT22;31489;51.404;5.474;2023-04-24T08:47:20;11.50;85.40
45785;DHT22;31489;51.404;5.474;2023-04-24T08:49:48;11.50;85.40
45785;DHT22;31489;51.404;5.474;2023-04-24T08:52:15;11.50;85.50
45785;DHT22;31489;51.404;5.474;2023-04-24T08:54:41;11.50;85.50
45785;DHT22;31489;51.404;5.474;2023-04-24T08:57:09;11.60;85.60
45785;DHT22;31489;51.404;5.474;2023-04-24T08:59:38;11.60;85.80
45785;DHT22;31489;51.404;5.474;2023-04-24T09:02:04;11.60;85.80
45785;DHT22;31489;51.404;5.474;2023-04-24T09:04:30;11.70;85.80
45785;DHT22;31489;51.404;5.474;2023-04-24T09:06:58;11.70;85.50
45785;DHT22;31489;51.404;5.474;2023-04-24T09:09:27;11.80;85.00
45785;DHT22;31489;51.404;5.474;2023-04-24T09:11:54;11.80;84.60
45785;DHT22;31489;51.404;5.474;2023-04-24T09:14:21;11.80;83.80
45785;DHT22;31489;51.404;5.474;2023-04-24T09:16:48;11.80;83.40
45785;DHT22;31489;51.404;5.474;2023-04-24T09:19:14;11.80;83.30
45785;DHT22;31489;51.404;5.474;2023-04-24T09:21:39;11.70;83.30
45785;DHT22;31489;51.404;5.474;2023-04-24T09:24:14;11.70;83.60
45785;DHT22;31489;51.404;5.474;2023-04-24T09:26:43;11.70;83.90
45785;DHT22;31489;51.404;5.474;2023-04-24T09:29:17;11.70;83.90
45785;DHT22;31489;51.404;5.474;2023-04-24T09:31:43;11.70;83.30
45785;DHT22;31489;51.404;5.474;2023-04-24T09:34:09;11.80;83.80
45785;DHT22;31489;51.404;5.474;2023-04-24T09:36:40;11.80;84.10
45785;DHT22;31489;51.404;5.474;2023-04-24T09:39:12;11.90;83.70
45785;DHT22;31489;51.404;5.474;2023-04-24T09:41:45;11.90;83.60
45785;DHT22;31489;51.404;5.474;2023-04-24T09:44:22;11.90;83.20
45785;DHT22;31489;51.404;5.474;2023-04-24T09:46:54;12.00;83.30
45785;DHT22;31489;51.404;5.474;2023-04-24T09:49:27;12.00;83.20
45785;DHT22;31489;51.404;5.474;2023-04-24T09:52:03;12.00;82.90
45785;DHT22;31489;51.404;5.474;2023-04-24T09:54:28;12.00;82.30
45785;DHT22;31489;51.404;5.474;2023-04-24T09:56:55;12.00;82.80
45785;DHT22;31489;51.404;5.474;2023-04-24T09:59:22;12.10;82.70
45785;DHT22;31489;51.404;5.474;2023-04-24T10:01:48;12.10;82.40
45785;DHT22;31489;51.404;5.474;2023-04-24T10:04:22;12.10;82.50
45785;DHT22;31489;51.404;5.474;2023-04-24T10:06:53;12.10;82.50
45785;DHT22;31489;51.404;5.474;2023-04-24T10:09:21;12.20;83.00
45785;DHT22;31489;51.404;5.474;2023-04-24T10:11:49;12.20;83.00
45785;DHT22;31489;51.404;5.474;2023-04-24T10:14:17;12.30;82.50
45785;DHT22;31489;51.404;5.474;2023-04-24T10:16:43;12.40;82.10
45785;DHT22;31489;51.404;5.474;2023-04-24T10:19:10;12.50;81.60
45785;DHT22;31489;51.404;5.474;2023-04-24T10:21:41;12.50;80.40
45785;DHT22;31489;51.404;5.474;2023-04-24T10:24:12;12.60;79.40
45785;DHT22;31489;51.404;5.474;2023-04-24T10:26:44;12.60;80.80
45785;DHT22;31489;51.404;5.474;2023-04-24T10:29:14;12.50;79.50
45785;DHT22;31489;51.404;5.474;2023-04-24T10:31:41;12.50;79.50
45785;DHT22;31489;51.404;5.474;2023-04-24T10:34:08;12.50;80.00
45785;DHT22;31489;51.404;5.474;2023-04-24T10:36:41;12.50;80.40
45785;DHT22;31489;51.404;5.474;2023-04-24T10:39:10;12.50;80.00
45785;DHT22;31489;51.404;5.474;2023-04-24T10:41:40;12.50;79.50
45785;DHT22;31489;51.404;5.474;2023-04-24T10:44:09;12.60;79.70
45785;DHT22;31489;51.404;5.474;2023-04-24T10:46:39;12.60;79.00
45785;DHT22;31489;51.404;5.474;2023-04-24T10:49:08;12.60;78.50
45785;DHT22;31489;51.404;5.474;2023-04-24T10:51:47;12.60;78.00
45785;DHT22;31489;51.404;5.474;2023-04-24T10:56:53;12.70;77.40
45785;DHT22;31489;51.404;5.474;2023-04-24T10:59:38;12.70;77.80
45785;DHT22;31489;51.404;5.474;2023-04-24T11:02:07;12.70;77.90
45785;DHT22;31489;51.404;5.474;2023-04-24T11:04:33;12.70;77.10
45785;DHT22;31489;51.404;5.474;2023-04-24T11:07:01;12.80;77.50
45785;DHT22;31489;51.404;5.474;2023-04-24T11:09:31;12.80;77.00
45785;DHT22;31489;51.404;5.474;2023-04-24T11:12:08;12.80;76.70
45785;DHT22;31489;51.404;5.474;2023-04-24T11:17:37;12.70;75.70
45785;DHT22;31489;51.404;5.474;2023-04-24T11:20:15;12.80;76.20
45785;DHT22;31489;51.404;5.474;2023-04-24T11:22:41;12.80;75.40
45785;DHT22;31489;51.404;5.474;2023-04-24T11:25:07;12.80;75.70
45785;DHT22;31489;51.404;5.474;2023-04-24T11:27:40;12.80;75.90
45785;DHT22;31489;51.404;5.474;2023-04-24T11:30:06;12.90;75.10
45785;DHT22;31489;51.404;5.474;2023-04-24T11:32:39;12.90;75.60
45785;DHT22;31489;51.404;5.474;2023-04-24T11:35:15;12.90;75.80
45785;DHT22;31489;51.404;5.474;2023-04-24T11:37:48;12.90;75.20
45785;DHT22;31489;51.404;5.474;2023-04-24T11:40:19;13.00;75.30
45785;DHT22;31489;51.404;5.474;2023-04-24T11:42:50;13.10;75.50
45785;DHT22;31489;51.404;5.474;2023-04-24T11:45:21;13.10;75.30
45785;DHT22;31489;51.404;5.474;2023-04-24T11:47:50;13.20;75.60
45785;DHT22;31489;51.404;5.474;2023-04-24T11:50:18;13.20;74.80
45785;DHT22;31489;51.404;5.474;2023-04-24T11:52:45;13.20;74.40
45785;DHT22;31489;51.404;5.474;2023-04-24T11:57:43;13.20;73.10
45785;DHT22;31489;51.404;5.474;2023-04-24T12:00:19;13.30;73.20
45785;DHT22;31489;51.404;5.474;2023-04-24T12:02:46;13.30;73.20
45785;DHT22;31489;51.404;5.474;2023-04-24T12:05:28;13.30;73.90
45785;DHT22;31489;51.404;5.474;2023-04-24T12:07:56;13.30;72.90
45785;DHT22;31489;51.404;5.474;2023-04-24T12:10:23;13.30;73.60
45785;DHT22;31489;51.404;5.474;2023-04-24T12:12:53;13.30;73.50
45785;DHT22;31489;51.404;5.474;2023-04-24T12:15:22;13.40;73.90
45785;DHT22;31489;51.404;5.474;2023-04-24T12:17:49;13.40;73.30
45785;DHT22;31489;51.404;5.474;2023-04-24T12:20:15;13.50;73.50
45785;DHT22;31489;51.404;5.474;2023-04-24T12:22:53;13.50;73.10
45785;DHT22;31489;51.404;5.474;2023-04-24T12:25:23;13.60;72.40
45785;DHT22;31489;51.404;5.474;2023-04-24T12:28:09;13.60;72.80
45785;DHT22;31489;51.404;5.474;2023-04-24T12:30:47;13.70;71.70
45785;DHT22;31489;51.404;5.474;2023-04-24T12:33:20;13.80;72.00
45785;DHT22;31489;51.404;5.474;2023-04-24T12:35:47;13.80;71.00
45785;DHT22;31489;51.404;5.474;2023-04-24T12:38:15;13.80;70.90
45785;DHT22;31489;51.404;5.474;2023-04-24T12:40:42;13.80;70.40
45785;DHT22;31489;51.404;5.474;2023-04-24T12:43:19;13.70;70.50
45785;DHT22;31489;51.404;5.474;2023-04-24T12:45:45;13.80;70.60
45785;DHT22;31489;51.404;5.474;2023-04-24T12:48:11;13.70;70.80
45785;DHT22;31489;51.404;5.474;2023-04-24T12:50:39;13.70;70.90
45785;DHT22;31489;51.404;5.474;2023-04-24T12:53:08;13.60;70.60
45785;DHT22;31489;51.404;5.474;2023-04-24T12:55:34;13.70;70.70
45785;DHT22;31489;51.404;5.474;2023-04-24T12:58:00;13.60;70.80
45785;DHT22;31489;51.404;5.474;2023-04-24T13:00:27;13.60;70.50
45785;DHT22;31489;51.404;5.474;2023-04-24T13:02:52;13.70;70.80
45785;DHT22;31489;51.404;5.474;2023-04-24T13:05:18;13.70;70.70
45785;DHT22;31489;51.404;5.474;2023-04-24T13:07:44;13.70;70.70
45785;DHT22;31489;51.404;5.474;2023-04-24T13:10:10;13.70;70.20
45785;DHT22;31489;51.404;5.474;2023-04-24T13:12:36;13.70;70.20
45785;DHT22;31489;51.404;5.474;2023-04-24T13:15:02;13.70;70.40
45785;DHT22;31489;51.404;5.474;2023-04-24T13:17:28;13.70;70.60
45785;DHT22;31489;51.404;5.474;2023-04-24T13:19:54;13.70;70.30
45785;DHT22;31489;51.404;5.474;2023-04-24T13:22:23;13.70;70.80
45785;DHT22;31489;51.404;5.474;2023-04-24T13:24:49;13.80;70.90
45785;DHT22;31489;51.404;5.474;2023-04-24T13:27:15;13.80;71.00
45785;DHT22;31489;51.404;5.474;2023-04-24T13:29:41;13.80;70.90
45785;DHT22;31489;51.404;5.474;2023-04-24T13:32:08;13.90;71.20
45785;DHT22;31489;51.404;5.474;2023-04-24T13:34:33;13.90;71.50
45785;DHT22;31489;51.404;5.474;2023-04-24T13:37:02;14.00;71.50
45785;DHT22;31489;51.404;5.474;2023-04-24T13:39:31;14.00;71.20
45785;DHT22;31489;51.404;5.474;2023-04-24T13:41:59;14.10;71.00
45785;DHT22;31489;51.404;5.474;2023-04-24T13:44:25;14.10;70.30
45785;DHT22;31489;51.404;5.474;2023-04-24T13:46:53;14.10;69.80
45785;DHT22;31489;51.404;5.474;2023-04-24T13:49:22;14.10;69.80
45785;DHT22;31489;51.404;5.474;2023-04-24T13:51:50;14.00;69.80
45785;DHT22;31489;51.404;5.474;2023-04-24T13:54:16;14.00;70.10
45785;DHT22;31489;51.404;5.474;2023-04-24T13:56:42;14.00;69.80
45785;DHT22;31489;51.404;5.474;2023-04-24T13:59:08;14.10;70.00
45785;DHT22;31489;51.404;5.474;2023-04-24T14:01:34;14.10;69.80
45785;DHT22;31489;51.404;5.474;2023-04-24T14:04:00;14.10;69.60
45785;DHT22;31489;51.404;5.474;2023-04-24T14:06:26;14.10;69.90
45785;DHT22;31489;51.404;5.474;2023-04-24T14:08:51;14.10;70.10
45785;DHT22;31489;51.404;5.474;2023-04-24T14:11:18;14.20;70.20
45785;DHT22;31489;51.404;5.474;2023-04-24T14:13:44;14.20;70.70
45785;DHT22;31489;51.404;5.474;2023-04-24T14:16:10;14.20;70.50
45785;DHT22;31489;51.404;5.474;2023-04-24T14:18:36;14.30;70.90
45785;DHT22;31489;51.404;5.474;2023-04-24T14:21:05;14.30;70.80
45785;DHT22;31489;51.404;5.474;2023-04-24T14:23:33;14.40;70.20
45785;DHT22;31489;51.404;5.474;2023-04-24T14:25:59;14.50;69.50
45785;DHT22;31489;51.404;5.474;2023-04-24T14:28:26;14.50;69.90
45785;DHT22;31489;51.404;5.474;2023-04-24T14:30:52;14.50;70.10
45785;DHT22;31489;51.404;5.474;2023-04-24T14:33:20;14.50;70.80
45785;DHT22;31489;51.404;5.474;2023-04-24T14:35:46;14.50;70.80
45785;DHT22;31489;51.404;5.474;2023-04-24T14:38:11;14.40;70.40
45785;DHT22;31489;51.404;5.474;2023-04-24T14:40:37;14.40;70.30
45785;DHT22;31489;51.404;5.474;2023-04-24T14:43:03;14.30;69.90
45785;DHT22;31489;51.404;5.474;2023-04-24T14:45:32;14.20;70.10
45785;DHT22;31489;51.404;5.474;2023-04-24T14:47:57;14.10;70.40
45785;DHT22;31489;51.404;5.474;2023-04-24T14:50:26;14.00;70.20
45785;DHT22;31489;51.404;5.474;2023-04-24T14:52:54;14.00;70.00
45785;DHT22;31489;51.404;5.474;2023-04-24T14:55:20;13.90;69.70
45785;DHT22;31489;51.404;5.474;2023-04-24T14:57:52;13.80;69.70
45785;DHT22;31489;51.404;5.474;2023-04-24T15:00:18;13.80;69.60
45785;DHT22;31489;51.404;5.474;2023-04-24T15:02:45;13.70;70.00
45785;DHT22;31489;51.404;5.474;2023-04-24T15:05:13;13.80;70.10
45785;DHT22;31489;51.404;5.474;2023-04-24T15:07:39;13.80;70.30
45785;DHT22;31489;51.404;5.474;2023-04-24T15:10:07;13.90;70.40
45785;DHT22;31489;51.404;5.474;2023-04-24T15:12:33;13.90;69.90
45785;DHT22;31489;51.404;5.474;2023-04-24T15:14:59;14.00;70.10
45785;DHT22;31489;51.404;5.474;2023-04-24T15:17:25;14.10;69.40
45785;DHT22;31489;51.404;5.474;2023-04-24T15:19:51;14.20;68.70
45785;DHT22;31489;51.404;5.474;2023-04-24T15:22:17;14.20;68.50
45785;DHT22;31489;51.404;5.474;2023-04-24T15:24:43;14.20;68.40
45785;DHT22;31489;51.404;5.474;2023-04-24T15:27:09;14.30;67.80
45785;DHT22;31489;51.404;5.474;2023-04-24T15:29:36;14.30;67.70
45785;DHT22;31489;51.404;5.474;2023-04-24T15:32:02;14.40;67.80
45785;DHT22;31489;51.404;5.474;2023-04-24T15:34:30;14.40;67.40
45785;DHT22;31489;51.404;5.474;2023-04-24T15:36:57;14.50;67.80